createdAt,value
2017-09-15T00:00:33.184Z,11.47
2017-09-15T00:03:01.502Z,11.46
2017-09-15T00:05:29.488Z,11.43
2017-09-15T00:07:57.423Z,11.47
2017-09-15T00:10:25.336Z,11.37
2017-09-15T00:12:53.230Z,11.46
2017-09-15T00:15:21.167Z,11.60
2017-09-15T00:17:49.140Z,11.56
2017-09-15T00:20:17.059Z,11.55
2017-09-15T00:22:44.967Z,11.57
2017-09-15T00:25:12.881Z,11.63
2017-09-15T00:27:40.802Z,11.64
2017-09-15T00:30:08.840Z,11.58
2017-09-15T00:32:36.763Z,11.71
2017-09-15T00:35:05.081Z,11.71
2017-09-15T00:37:32.991Z,11.71
2017-09-15T00:40:00.951Z,11.78
2017-09-15T00:42:28.971Z,11.80
2017-09-15T00:44:56.879Z,11.79
2017-09-15T00:47:25.099Z,11.78
2017-09-15T00:49:53.448Z,11.73
2017-09-15T00:52:21.417Z,11.79
2017-09-15T00:54:49.495Z,11.73
2017-09-15T00:57:17.399Z,11.75
2017-09-15T00:59:45.307Z,11.76
2017-09-15T01:02:13.206Z,11.86
2017-09-15T01:04:41.164Z,11.74
2017-09-15T01:07:09.127Z,11.82
2017-09-15T01:09:37.026Z,11.80
2017-09-15T01:12:05.340Z,11.81
2017-09-15T01:14:33.341Z,11.79
2017-09-15T01:17:01.252Z,11.88
2017-09-15T01:19:29.188Z,11.92
2017-09-15T01:21:57.088Z,11.86
2017-09-15T01:24:25.020Z,11.92
2017-09-15T01:26:52.931Z,11.85
2017-09-15T01:29:20.945Z,11.82
2017-09-15T01:31:48.885Z,11.93
2017-09-15T01:34:16.799Z,11.93
2017-09-15T01:36:44.691Z,11.98
2017-09-15T01:39:12.678Z,11.89
2017-09-15T01:41:40.599Z,11.99
2017-09-15T01:44:08.497Z,11.96
2017-09-15T01:46:36.395Z,12.07
2017-09-15T01:49:04.320Z,12.06
2017-09-15T01:51:32.630Z,12.10
2017-09-15T01:54:00.654Z,12.00
2017-09-15T01:56:28.591Z,12.08
2017-09-15T01:58:56.503Z,12.10
2017-09-15T02:01:24.794Z,12.12
2017-09-15T02:03:52.719Z,12.12
2017-09-15T02:06:20.716Z,12.15
2017-09-15T02:08:49.012Z,12.15
2017-09-15T02:11:16.917Z,12.22
2017-09-15T02:13:44.817Z,12.22
2017-09-15T02:16:13.123Z,12.27
2017-09-15T02:18:41.135Z,12.25
2017-09-15T02:21:09.106Z,12.26
2017-09-15T02:23:37.007Z,12.32
2017-09-15T02:26:05.316Z,12.26
2017-09-15T02:28:33.240Z,12.28
2017-09-15T02:31:01.149Z,12.29
2017-09-15T02:33:29.055Z,12.28
2017-09-15T02:35:56.984Z,12.39
2017-09-15T02:38:24.885Z,12.33
2017-09-15T02:40:52.967Z,12.35
2017-09-15T02:43:20.871Z,12.38
2017-09-15T02:45:49.174Z,12.35
2017-09-15T02:48:17.099Z,12.36
2017-09-15T02:50:45.396Z,12.45
2017-09-15T02:53:13.314Z,12.45
2017-09-15T02:55:41.293Z,12.40
2017-09-15T02:58:09.204Z,12.38
2017-09-15T03:00:37.231Z,12.36
2017-09-15T03:03:05.184Z,12.41
2017-09-15T03:05:33.084Z,12.43
2017-09-15T03:08:01.023Z,12.43
2017-09-15T03:10:28.936Z,12.45
2017-09-15T03:12:57.228Z,12.50
2017-09-15T03:15:25.256Z,12.51
2017-09-15T03:17:53.159Z,12.55
2017-09-15T03:20:21.139Z,12.55
2017-09-15T03:22:49.041Z,12.53
2017-09-15T03:25:16.940Z,12.51
2017-09-15T03:27:45.260Z,12.46
2017-09-15T03:30:13.176Z,12.46
2017-09-15T03:32:41.086Z,12.48
2017-09-15T03:35:08.986Z,12.45
2017-09-15T03:37:36.914Z,12.46
2017-09-15T03:40:04.844Z,12.50
2017-09-15T03:42:32.749Z,12.45
2017-09-15T03:45:00.725Z,12.47
2017-09-15T03:47:28.650Z,12.44
2017-09-15T03:49:56.562Z,12.37
2017-09-15T03:52:24.493Z,12.39
2017-09-15T03:54:52.906Z,12.42
2017-09-15T03:57:20.822Z,12.37
2017-09-15T03:59:48.751Z,12.40
2017-09-15T04:02:16.761Z,12.34
2017-09-15T04:04:44.687Z,12.42
2017-09-15T04:07:12.692Z,12.45
2017-09-15T04:09:40.724Z,12.47
2017-09-15T04:12:08.623Z,12.47
2017-09-15T04:14:36.551Z,12.51
2017-09-15T04:17:04.459Z,12.56
2017-09-15T04:19:32.392Z,12.59
2017-09-15T04:22:00.607Z,12.65
2017-09-15T04:24:28.587Z,12.70
2017-09-15T04:26:56.512Z,12.70
2017-09-15T04:29:24.483Z,12.73
2017-09-15T04:31:52.478Z,12.84
2017-09-15T04:34:20.419Z,12.78
2017-09-15T04:36:48.384Z,12.82
2017-09-15T04:39:16.304Z,12.79
2017-09-15T04:41:44.203Z,12.81
2017-09-15T04:44:12.123Z,12.75
2017-09-15T04:46:40.037Z,12.75
2017-09-15T04:49:08.071Z,12.71
2017-09-15T04:51:35.995Z,12.65
2017-09-15T04:54:03.900Z,12.69
2017-09-15T04:56:31.869Z,12.59
2017-09-15T04:58:59.831Z,12.61
2017-09-15T05:01:27.806Z,12.71
2017-09-15T05:03:55.763Z,12.80
2017-09-15T05:06:23.696Z,12.84
2017-09-15T05:08:51.631Z,12.82
2017-09-15T05:11:19.943Z,12.82
2017-09-15T05:13:47.883Z,12.93
2017-09-15T05:16:16.222Z,12.92
2017-09-15T05:18:44.151Z,12.94
2017-09-15T05:21:12.222Z,12.99
2017-09-15T05:23:40.132Z,13.03
2017-09-15T05:26:08.044Z,13.08
2017-09-15T05:28:35.982Z,13.05
2017-09-15T05:31:03.884Z,13.07
2017-09-15T05:33:31.829Z,13.05
2017-09-15T05:36:00.140Z,13.10
2017-09-15T05:38:28.043Z,13.11
2017-09-15T05:40:55.958Z,13.14
2017-09-15T05:43:24.029Z,13.16
2017-09-15T05:45:51.943Z,13.23
2017-09-15T05:48:19.847Z,13.36
2017-09-15T05:50:48.204Z,13.89
2017-09-15T05:53:16.163Z,14.52
2017-09-15T05:55:44.067Z,14.86
2017-09-15T05:58:12.408Z,14.97
2017-09-15T06:00:40.311Z,14.81
2017-09-15T06:03:08.676Z,14.75
2017-09-15T06:05:38.212Z,14.62
2017-09-15T06:08:06.127Z,14.56
2017-09-15T06:10:34.111Z,14.40
2017-09-15T06:13:02.029Z,14.48
2017-09-15T06:15:30.053Z,14.48
2017-09-15T06:17:57.954Z,14.57
2017-09-15T06:20:25.926Z,14.58
2017-09-15T06:22:53.904Z,14.58
2017-09-15T06:25:21.812Z,14.43
2017-09-15T06:27:49.734Z,14.59
2017-09-15T06:30:17.747Z,14.54
2017-09-15T06:32:45.647Z,15.18
2017-09-15T06:35:14.054Z,16.36
2017-09-15T06:37:42.197Z,16.66
2017-09-15T06:40:10.171Z,16.10
2017-09-15T06:42:38.104Z,15.54
2017-09-15T06:45:06.180Z,15.48
2017-09-15T06:47:34.075Z,15.49
2017-09-15T06:50:02.400Z,15.67
2017-09-15T06:52:30.299Z,15.32
2017-09-15T06:54:58.207Z,15.84
2017-09-15T06:57:26.220Z,16.19
2017-09-15T06:59:54.256Z,16.87
2017-09-15T07:02:22.150Z,18.35
2017-09-15T07:04:50.078Z,19.92
2017-09-15T07:07:17.972Z,19.90
2017-09-15T07:09:45.964Z,19.01
2017-09-15T07:12:13.892Z,18.07
2017-09-15T07:14:41.799Z,18.51
2017-09-15T07:17:09.711Z,19.10
2017-09-15T07:19:37.748Z,18.94
2017-09-15T07:22:05.654Z,19.11
2017-09-15T07:24:33.568Z,19.48
2017-09-15T07:27:01.496Z,19.81
2017-09-15T07:29:29.397Z,19.53
2017-09-15T07:31:57.309Z,19.08
2017-09-15T07:34:25.626Z,19.63
2017-09-15T07:36:53.543Z,21.56
2017-09-15T07:39:21.653Z,21.78
2017-09-15T07:41:49.601Z,21.90
2017-09-15T07:44:17.920Z,22.66
2017-09-15T07:46:45.833Z,22.93
2017-09-15T07:49:14.439Z,24.09
2017-09-15T07:51:42.351Z,23.14
2017-09-15T07:54:10.257Z,23.45
2017-09-15T07:56:38.174Z,23.47
2017-09-15T07:59:06.071Z,23.32
2017-09-15T08:01:34.039Z,23.50
2017-09-15T08:04:01.955Z,24.80
2017-09-15T08:06:29.978Z,25.33
2017-09-15T08:08:57.877Z,26.29
2017-09-15T08:11:25.831Z,26.65
2017-09-15T08:13:54.279Z,26.90
2017-09-15T08:16:22.251Z,26.44
2017-09-15T08:18:50.179Z,26.73
2017-09-15T08:21:18.084Z,27.24
2017-09-15T08:23:46.004Z,27.64
2017-09-15T08:26:13.948Z,27.47
2017-09-15T08:28:42.246Z,26.64
2017-09-15T08:31:10.167Z,26.99
2017-09-15T08:33:38.127Z,26.86
2017-09-15T08:36:06.024Z,28.12
2017-09-15T08:38:33.924Z,27.69
2017-09-15T08:41:01.851Z,27.89
2017-09-15T08:43:29.800Z,26.77
2017-09-15T08:45:57.695Z,27.32
2017-09-15T08:48:26.054Z,28.66
2017-09-15T08:50:53.952Z,29.49
2017-09-15T08:53:22.295Z,29.21
2017-09-15T08:55:50.220Z,28.62
2017-09-15T08:58:18.160Z,26.05
2017-09-15T09:00:46.452Z,24.48
2017-09-15T09:03:14.366Z,22.90
2017-09-15T09:05:42.343Z,21.61
2017-09-15T09:08:10.252Z,20.74
2017-09-15T09:10:38.598Z,20.08
2017-09-15T09:13:06.511Z,20.32
2017-09-15T09:15:34.421Z,21.69
2017-09-15T09:18:02.347Z,22.96
2017-09-15T09:20:30.322Z,23.33
2017-09-15T09:22:58.218Z,24.28
2017-09-15T09:25:26.144Z,24.19
2017-09-15T09:27:54.166Z,25.39
2017-09-15T09:30:22.058Z,26.09
2017-09-15T09:32:50.371Z,27.25
2017-09-15T09:35:18.378Z,27.62
2017-09-15T09:37:46.280Z,26.92
2017-09-15T09:40:14.600Z,26.02
2017-09-15T09:42:42.586Z,25.79
2017-09-15T09:45:10.555Z,26.15
2017-09-15T09:47:38.470Z,26.38
2017-09-15T09:50:06.787Z,27.45
2017-09-15T09:52:34.689Z,28.25
2017-09-15T09:55:02.620Z,29.02
2017-09-15T09:57:30.519Z,27.73
2017-09-15T09:59:58.428Z,26.48
2017-09-15T10:02:26.338Z,24.03
2017-09-15T10:04:54.267Z,23.25
2017-09-15T10:07:22.172Z,21.89
2017-09-15T10:09:50.128Z,22.32
2017-09-15T10:12:18.115Z,23.43
2017-09-15T10:14:46.015Z,24.45
2017-09-15T10:17:14.332Z,25.26
2017-09-15T10:19:42.227Z,25.78
2017-09-15T10:22:10.128Z,26.29
2017-09-15T10:24:38.448Z,26.74
2017-09-15T10:27:06.355Z,27.05
2017-09-15T10:29:34.260Z,26.98
2017-09-15T10:32:02.292Z,27.36
2017-09-15T10:34:30.187Z,26.78
2017-09-15T10:36:58.088Z,27.38
2017-09-15T10:39:26.084Z,27.22
2017-09-15T10:41:53.979Z,27.81
2017-09-15T10:44:22.280Z,27.71
2017-09-15T10:46:50.200Z,27.12
2017-09-15T10:49:18.112Z,25.99
2017-09-15T10:51:46.018Z,25.15
2017-09-15T10:54:13.952Z,24.35
2017-09-15T10:56:41.863Z,23.81
2017-09-15T10:59:15.319Z,24.22
2017-09-15T11:01:43.237Z,24.30
2017-09-15T11:04:11.156Z,24.85
2017-09-15T11:06:39.164Z,24.59
2017-09-15T11:09:07.060Z,24.06
2017-09-15T11:11:35.381Z,23.40
2017-09-15T11:14:03.480Z,22.41
2017-09-15T11:16:31.406Z,22.23
2017-09-15T11:18:59.311Z,22.10
2017-09-15T11:21:27.249Z,21.43
2017-09-15T11:23:55.247Z,21.51
2017-09-15T11:26:23.150Z,21.26
2017-09-15T11:28:51.466Z,21.10
2017-09-15T11:31:19.457Z,20.92
2017-09-15T11:33:47.362Z,20.60
2017-09-15T11:36:15.691Z,20.62
2017-09-15T11:38:43.586Z,20.63
2017-09-15T11:41:11.501Z,20.79
2017-09-15T11:43:39.411Z,20.57
2017-09-15T11:46:07.322Z,20.48
2017-09-15T11:48:35.631Z,20.24
2017-09-15T11:51:03.560Z,20.37
2017-09-15T11:53:31.854Z,20.25
2017-09-15T11:55:59.759Z,20.16
2017-09-15T11:58:27.745Z,20.13
2017-09-15T12:00:55.703Z,20.44
2017-09-15T12:03:23.614Z,20.61
2017-09-15T12:05:51.551Z,20.74
2017-09-15T12:08:19.475Z,20.56
2017-09-15T12:10:47.406Z,20.21
2017-09-15T12:13:15.347Z,20.36
2017-09-15T12:15:43.436Z,20.31
2017-09-15T12:18:11.350Z,20.56
2017-09-15T12:20:39.347Z,20.76
2017-09-15T12:23:07.246Z,21.19
2017-09-15T12:25:35.548Z,21.49
2017-09-15T12:28:03.575Z,21.33
2017-09-15T12:30:31.507Z,21.20
2017-09-15T12:32:59.407Z,20.81
2017-09-15T12:35:27.367Z,20.53
2017-09-15T12:37:55.267Z,20.21
2017-09-15T12:40:23.573Z,20.35
2017-09-15T12:42:51.498Z,20.52
2017-09-15T12:45:19.390Z,20.70
2017-09-15T12:47:47.747Z,20.61
2017-09-15T12:50:15.683Z,20.33
2017-09-15T12:52:43.669Z,20.22
2017-09-15T12:55:11.576Z,20.39
2017-09-15T12:57:39.508Z,20.48
2017-09-15T13:00:07.434Z,20.50
2017-09-15T13:02:35.340Z,20.58
2017-09-15T13:05:03.264Z,20.51
2017-09-15T13:07:31.172Z,20.32
2017-09-15T13:09:59.323Z,20.48
2017-09-15T13:12:27.238Z,20.69
2017-09-15T13:14:55.533Z,20.74
2017-09-15T13:17:23.428Z,20.88
2017-09-15T13:19:51.355Z,20.48
2017-09-15T13:22:19.703Z,20.34
2017-09-15T13:24:47.611Z,20.24
2017-09-15T13:27:15.923Z,20.12
2017-09-15T13:29:43.835Z,19.96
2017-09-15T13:32:11.758Z,20.18
2017-09-15T13:34:39.691Z,20.24
2017-09-15T13:37:07.597Z,20.21
2017-09-15T13:39:35.516Z,20.33
2017-09-15T13:42:03.843Z,20.17
2017-09-15T13:44:32.424Z,20.24
2017-09-15T13:47:00.338Z,20.16
2017-09-15T13:49:28.674Z,20.07
2017-09-15T13:51:56.759Z,19.81
2017-09-15T13:54:24.674Z,19.59
2017-09-15T13:56:52.707Z,19.77
2017-09-15T13:59:20.659Z,20.06
2017-09-15T14:01:48.564Z,20.01
2017-09-15T14:04:17.612Z,20.19
2017-09-15T14:06:45.961Z,19.96
2017-09-15T14:09:13.878Z,19.85
2017-09-15T14:11:41.839Z,19.65
2017-09-15T14:14:09.751Z,19.29
2017-09-15T14:16:37.676Z,19.46
2017-09-15T14:19:05.618Z,19.30
2017-09-15T14:21:34.423Z,19.30
2017-09-15T14:24:02.365Z,19.04
2017-09-15T14:26:30.288Z,18.63
2017-09-15T14:28:59.057Z,18.52
2017-09-15T14:31:27.497Z,18.30
2017-09-15T14:33:55.451Z,17.86
2017-09-15T14:36:23.349Z,17.54
2017-09-15T14:38:51.243Z,17.35
2017-09-15T14:41:19.185Z,17.35
2017-09-15T14:43:47.087Z,17.35
2017-09-15T14:46:15.000Z,17.52
2017-09-15T14:48:42.939Z,17.39
2017-09-15T14:51:11.251Z,17.44
2017-09-15T14:53:39.319Z,17.42
2017-09-15T14:56:07.236Z,17.37
2017-09-15T14:58:35.135Z,17.54
2017-09-15T15:01:03.422Z,17.70
2017-09-15T15:03:31.361Z,17.36
2017-09-15T15:05:59.300Z,17.57
2017-09-15T15:08:27.206Z,17.75
2017-09-15T15:10:55.517Z,17.86
2017-09-15T15:13:23.511Z,17.76
2017-09-15T15:15:51.499Z,17.62
2017-09-15T15:18:19.423Z,17.64
2017-09-15T15:20:47.387Z,17.59
2017-09-15T15:23:15.286Z,17.42
2017-09-15T15:25:43.227Z,17.30
2017-09-15T15:28:11.139Z,17.21
2017-09-15T15:30:39.052Z,17.19
2017-09-15T15:33:06.976Z,17.35
2017-09-15T15:35:35.792Z,17.43
2017-09-15T15:38:04.235Z,17.35
2017-09-15T15:40:32.160Z,17.27
2017-09-15T15:43:00.067Z,17.21
2017-09-15T15:45:27.966Z,17.20
2017-09-15T15:47:55.999Z,17.13
2017-09-15T15:50:23.891Z,17.13
2017-09-15T15:52:52.252Z,17.08
2017-09-15T15:55:20.191Z,17.15
2017-09-15T15:57:48.191Z,17.11
2017-09-15T16:00:16.160Z,17.17
2017-09-15T16:02:44.088Z,17.12
2017-09-15T16:05:11.991Z,17.06
2017-09-15T16:07:39.908Z,17.20
2017-09-15T16:10:07.935Z,17.32
2017-09-15T16:12:35.903Z,17.21
2017-09-15T16:15:03.821Z,17.22
2017-09-15T16:17:31.744Z,16.95
2017-09-15T16:19:59.655Z,16.90
2017-09-15T16:22:27.552Z,16.97
2017-09-15T16:24:55.470Z,16.80
2017-09-15T16:27:23.770Z,16.77
2017-09-15T16:29:51.671Z,16.51
2017-09-15T16:32:19.595Z,16.40
2017-09-15T16:34:47.507Z,16.29
2017-09-15T16:37:15.409Z,16.21
2017-09-15T16:39:49.179Z,16.07
2017-09-15T16:42:22.466Z,16.10
2017-09-15T16:44:56.283Z,15.99
2017-09-15T16:47:29.733Z,15.90
2017-09-15T16:49:57.106Z,15.81
2017-09-15T16:52:25.002Z,15.90
2017-09-15T16:54:52.903Z,15.87
2017-09-15T16:57:21.222Z,15.92
2017-09-15T16:59:49.128Z,15.88
2017-09-15T17:02:17.030Z,15.76
2017-09-15T17:04:44.965Z,15.69
2017-09-15T17:07:12.864Z,15.59
2017-09-15T17:09:40.778Z,15.64
2017-09-15T17:12:08.819Z,15.50
2017-09-15T17:14:36.751Z,15.39
2017-09-15T17:17:05.055Z,15.40
2017-09-15T17:19:33.062Z,15.41
2017-09-15T17:22:00.984Z,15.27
2017-09-15T17:24:28.911Z,15.26
2017-09-15T17:26:56.867Z,15.23
2017-09-15T17:29:24.780Z,15.20
2017-09-15T17:31:53.092Z,15.06
2017-09-15T17:34:21.018Z,15.00
2017-09-15T17:36:49.409Z,14.95
2017-09-15T17:39:17.714Z,14.93
2017-09-15T17:41:45.713Z,14.88
2017-09-15T17:44:13.769Z,14.79
2017-09-15T17:46:41.803Z,14.78
2017-09-15T17:49:09.849Z,14.71
2017-09-15T17:51:38.155Z,14.63
2017-09-15T17:54:06.060Z,14.63
2017-09-15T17:56:33.983Z,14.60
2017-09-15T17:59:01.994Z,14.55
2017-09-15T18:01:30.012Z,14.45
2017-09-15T18:03:58.009Z,14.44
2017-09-15T18:06:26.011Z,14.49
2017-09-15T18:08:53.923Z,14.43
2017-09-15T18:11:22.232Z,14.35
2017-09-15T18:13:50.235Z,14.32
2017-09-15T18:16:18.150Z,14.33
2017-09-15T18:18:46.186Z,14.32
2017-09-15T18:21:14.200Z,14.29
2017-09-15T18:23:42.108Z,14.33
2017-09-15T18:26:10.082Z,14.27
2017-09-15T18:28:37.992Z,14.30
2017-09-15T18:31:05.907Z,14.39
2017-09-15T18:33:33.835Z,14.33
2017-09-15T18:36:01.909Z,14.39
2017-09-15T18:38:29.827Z,14.38
2017-09-15T18:40:57.766Z,14.38
2017-09-15T18:43:25.667Z,14.35
2017-09-15T18:45:53.579Z,14.37
2017-09-15T18:48:21.595Z,14.43
2017-09-15T18:50:49.555Z,14.41
2017-09-15T18:53:17.451Z,14.48
2017-09-15T18:55:45.778Z,14.53
2017-09-15T18:58:13.776Z,14.51
2017-09-15T19:00:41.775Z,14.56
2017-09-15T19:03:10.099Z,14.53
2017-09-15T19:05:37.995Z,14.45
2017-09-15T19:08:05.908Z,14.58
2017-09-15T19:10:33.832Z,14.52
2017-09-15T19:13:01.871Z,14.48
2017-09-15T19:15:29.801Z,14.46
2017-09-15T19:17:58.115Z,14.37
2017-09-15T19:20:26.020Z,14.27
2017-09-15T19:22:53.923Z,14.16
2017-09-15T19:25:22.150Z,13.93
2017-09-15T19:27:50.112Z,13.84
2017-09-15T19:30:18.079Z,13.69
2017-09-15T19:32:46.043Z,13.62
2017-09-15T19:35:14.015Z,13.56
2017-09-15T19:37:41.994Z,13.48
2017-09-15T19:40:09.912Z,13.42
2017-09-15T19:42:37.818Z,13.39
2017-09-15T19:45:05.727Z,13.35
2017-09-15T19:47:34.044Z,13.28
2017-09-15T19:50:02.052Z,13.14
2017-09-15T19:52:29.951Z,13.20
2017-09-15T19:54:57.867Z,13.18
2017-09-15T19:57:25.843Z,13.08
2017-09-15T19:59:53.760Z,13.12
2017-09-15T20:02:21.690Z,13.08
2017-09-15T20:04:49.609Z,12.99
2017-09-15T20:07:17.512Z,12.94
2017-09-15T20:09:45.426Z,12.95
2017-09-15T20:12:13.352Z,12.86
2017-09-15T20:14:41.292Z,12.87
2017-09-15T20:17:09.252Z,12.82
2017-09-15T20:19:37.152Z,12.76
2017-09-15T20:22:05.055Z,12.86
2017-09-15T20:24:32.974Z,12.80
2017-09-15T20:27:00.878Z,12.75
2017-09-15T20:29:28.793Z,12.78
2017-09-15T20:31:56.720Z,12.73
2017-09-15T20:34:24.708Z,12.67
2017-09-15T20:36:52.621Z,12.63
2017-09-15T20:39:20.552Z,12.63
2017-09-15T20:41:48.446Z,12.56
2017-09-15T20:44:16.363Z,12.53
2017-09-15T20:46:44.682Z,12.49
2017-09-15T20:49:12.679Z,12.46
2017-09-15T20:51:40.696Z,12.41
2017-09-15T20:54:08.624Z,12.41
2017-09-15T20:56:36.532Z,12.45
2017-09-15T20:59:04.451Z,12.42
2017-09-15T21:01:32.372Z,12.36
2017-09-15T21:04:00.266Z,12.35
2017-09-15T21:06:28.171Z,12.26
2017-09-15T21:08:56.095Z,12.25
2017-09-15T21:11:24.009Z,12.28
2017-09-15T21:13:51.918Z,12.21
2017-09-15T21:16:19.847Z,12.17
2017-09-15T21:18:48.153Z,12.13
2017-09-15T21:21:16.068Z,12.12
2017-09-15T21:23:43.983Z,12.11
2017-09-15T21:26:11.900Z,12.03
2017-09-15T21:28:39.887Z,12.01
2017-09-15T21:31:07.862Z,11.91
2017-09-15T21:33:35.739Z,11.85
2017-09-15T21:36:04.043Z,11.86
2017-09-15T21:38:31.979Z,11.86
2017-09-15T21:41:00.277Z,11.90
2017-09-15T21:43:28.186Z,11.89
2017-09-15T21:45:56.172Z,11.87
2017-09-15T21:48:24.066Z,11.93
2017-09-15T21:50:51.998Z,11.89
2017-09-15T21:53:19.938Z,11.84
2017-09-15T21:55:47.840Z,11.80
2017-09-15T21:58:15.750Z,11.84
2017-09-15T22:00:43.816Z,11.76
2017-09-15T22:03:11.752Z,11.70
2017-09-15T22:05:39.678Z,11.69
2017-09-15T22:08:07.624Z,11.69
2017-09-15T22:10:35.560Z,11.63
2017-09-15T22:13:03.548Z,11.66
2017-09-15T22:15:32.003Z,11.62
2017-09-15T22:17:59.924Z,11.60
2017-09-15T22:20:27.843Z,11.57
2017-09-15T22:22:55.773Z,11.54
2017-09-15T22:25:23.678Z,11.55
2017-09-15T22:27:51.631Z,11.47
2017-09-15T22:30:19.663Z,11.40
2017-09-15T22:32:47.577Z,11.38
2017-09-15T22:35:15.482Z,11.36
2017-09-15T22:37:43.417Z,11.32
2017-09-15T22:40:11.328Z,11.29
2017-09-15T22:42:39.242Z,11.21
2017-09-15T22:45:07.159Z,11.24
2017-09-15T22:47:35.072Z,11.27
2017-09-15T22:50:02.992Z,11.27
2017-09-15T22:52:30.928Z,11.27
2017-09-15T22:54:58.884Z,11.19
2017-09-15T22:57:26.795Z,11.21
2017-09-15T22:59:54.886Z,11.16
2017-09-15T23:02:22.793Z,11.13
2017-09-15T23:04:50.698Z,11.14
2017-09-15T23:07:19.019Z,11.17
2017-09-15T23:09:47.149Z,11.24
2017-09-15T23:12:15.080Z,11.10
2017-09-15T23:14:43.041Z,11.10
2017-09-15T23:17:10.983Z,11.14
2017-09-15T23:19:38.992Z,11.06
2017-09-15T23:22:06.932Z,11.02
2017-09-15T23:24:34.924Z,11.02
2017-09-15T23:27:02.830Z,10.99
2017-09-15T23:29:30.858Z,11.01
2017-09-15T23:31:58.763Z,10.98
2017-09-15T23:34:27.056Z,10.97
2017-09-15T23:36:54.980Z,10.96
2017-09-15T23:39:23.355Z,10.91
2017-09-15T23:41:51.269Z,10.85
2017-09-15T23:44:19.238Z,10.80
2017-09-15T23:46:47.139Z,10.82
2017-09-15T23:49:15.277Z,10.77
2017-09-15T23:51:43.204Z,10.77
2017-09-15T23:54:11.111Z,10.71
2017-09-15T23:56:39.011Z,10.70
2017-09-15T23:59:06.967Z,10.76
